Time;durP1;ratioP1;P1;durP2;ratioP2;P2;SDS_P1;SDS_P2;PMS_P1;PMS_P2;Temp;Humidity;BMP_temperature;BMP_pressure;BME280_temperature;BME280_humidity;BME280_pressure;Samples;Min_cycle;Max_cycle;Signal;HPM_P1;HPM_P2
2022/05/05 00:00:36;;;;;;;4.25;2.75;;;;;;;11.54;100.00;102782.49;1932662;73;21103;-72
2022/05/05 00:03:04;;;;;;;6.22;3.17;;;;;;;11.55;100.00;102788.95;1902737;73;21192;-72
2022/05/05 00:05:31;;;;;;;5.00;3.00;;;;;;;11.57;100.00;102795.44;1960184;73;21691;-72
2022/05/05 00:07:58;;;;;;;4.05;2.60;;;;;;;11.55;100.00;102791.52;1959736;72;21116;-72
2022/05/05 00:15:57;;;;;;;3.62;2.40;;;;;;;11.78;100.00;102800.84;1947345;71;21187;-72
2022/05/05 00:18:24;;;;;;;3.90;1.87;;;;;;;11.70;100.00;102796.72;1961264;72;21013;-72
2022/05/05 00:20:52;;;;;;;4.92;2.47;;;;;;;11.67;100.00;102788.49;1961367;73;21577;-72
2022/05/05 00:23:19;;;;;;;4.28;2.60;;;;;;;11.72;100.00;102788.22;1931212;73;21096;-72
2022/05/05 00:25:46;;;;;;;4.25;2.55;;;;;;;11.61;100.00;102789.56;1959714;72;21068;-72
2022/05/05 00:28:14;;;;;;;3.92;2.40;;;;;;;11.56;100.00;102784.29;1961225;72;21013;-72
2022/05/05 00:30:41;;;;;;;4.22;2.47;;;;;;;11.70;100.00;102790.28;1939416;72;21136;-72
2022/05/05 00:33:09;;;;;;;4.10;2.30;;;;;;;11.71;100.00;102789.45;1932142;74;21027;-72
2022/05/05 00:35:36;;;;;;;4.17;2.67;;;;;;;11.70;100.00;102779.58;1931603;73;21096;-72
2022/05/05 00:38:04;;;;;;;3.37;2.25;;;;;;;11.79;100.00;102784.56;1933995;72;21076;-72
2022/05/05 00:40:31;;;;;;;3.92;2.98;;;;;;;11.81;100.00;102792.80;1936499;72;21207;-72
2022/05/05 00:43:02;;;;;;;5.12;2.47;;;;;;;11.74;100.00;102817.48;1936583;74;21128;-72
2022/05/05 00:45:29;;;;;;;4.05;2.55;;;;;;;11.75;100.00;102820.91;1936821;73;21541;-72
2022/05/05 00:48:05;;;;;;;4.67;2.70;;;;;;;11.78;100.00;102823.59;1936509;73;21063;-72
2022/05/05 00:50:34;;;;;;;4.10;2.62;;;;;;;11.77;100.00;102821.85;1936498;73;21071;-72
2022/05/05 00:53:03;;;;;;;4.83;2.45;;;;;;;11.75;100.00;102820.91;1936210;74;21079;-72
2022/05/05 00:55:36;;;;;;;4.10;2.33;;;;;;;11.85;100.00;102819.11;1879211;75;21090;-73
2022/05/05 00:58:03;;;;;;;2.70;2.00;;;;;;;11.93;100.00;102826.21;1927221;73;21038;-73
2022/05/05 01:00:33;;;;;;;3.92;1.90;;;;;;;11.93;100.00;102815.91;1936687;74;21247;-72
2022/05/05 01:03:02;;;;;;;3.02;2.20;;;;;;;11.88;100.00;102810.59;1936536;74;21100;-72
2022/05/05 01:05:30;;;;;;;2.58;2.17;;;;;;;11.91;100.00;102813.28;1936619;74;21172;-72
2022/05/05 01:07:58;;;;;;;3.80;2.85;;;;;;;11.91;100.00;102800.80;1905670;74;21503;-72
2022/05/05 01:10:26;;;;;;;4.17;2.40;;;;;;;11.79;100.00;102794.87;1926199;73;21141;-72
2022/05/05 01:12:54;;;;;;;4.15;2.47;;;;;;;11.75;100.00;102782.28;1927886;73;21095;-72
2022/05/05 01:15:22;;;;;;;3.92;2.55;;;;;;;11.70;100.00;102768.00;1890793;73;21475;-73
2022/05/05 01:17:50;;;;;;;3.80;2.85;;;;;;;11.78;100.00;102766.94;1934088;72;21027;-72
2022/05/05 01:20:19;;;;;;;4.72;3.05;;;;;;;11.74;100.00;102760.83;1932316;74;21112;-72
2022/05/05 01:22:47;;;;;;;3.65;2.30;;;;;;;11.75;100.00;102757.82;1931665;73;21092;-72
2022/05/05 01:28:12;;;;;;;3.55;2.37;;;;;;;11.82;100.00;102742.17;1934008;74;21058;-72
2022/05/05 01:30:43;;;;;;;5.05;2.60;;;;;;;11.80;100.00;102731.82;1945664;72;21061;-72
2022/05/05 01:33:16;;;;;;;3.58;2.08;;;;;;;11.76;100.00;102720.08;1952974;72;21090;-72
2022/05/05 01:35:46;;;;;;;3.93;2.60;;;;;;;11.86;100.00;102710.09;1953023;72;21061;-72
2022/05/05 01:38:16;;;;;;;3.75;2.70;;;;;;;11.91;100.00;102698.66;1924834;73;21586;-72
2022/05/05 01:40:46;;;;;;;3.27;2.55;;;;;;;11.81;100.00;102679.88;1952757;72;21045;-73
2022/05/05 01:43:16;;;;;;;2.83;2.10;;;;;;;11.73;100.00;102665.50;1953186;72;21136;-72
2022/05/05 01:45:44;;;;;;;4.03;2.70;;;;;;;11.64;100.00;102655.78;1952862;72;21061;-72
2022/05/05 01:48:11;;;;;;;4.62;2.52;;;;;;;11.58;100.00;102650.03;1954076;72;21071;-72
2022/05/05 01:50:39;;;;;;;3.33;2.40;;;;;;;11.64;100.00;102636.91;1952711;72;21059;-73
2022/05/05 01:53:07;;;;;;;3.60;2.47;;;;;;;11.71;100.00;102639.70;1952726;72;21121;-72
2022/05/05 01:55:35;;;;;;;4.17;2.60;;;;;;;11.72;100.00;102625.13;1954238;72;21593;-72
2022/05/05 01:58:03;;;;;;;2.72;1.90;;;;;;;11.80;100.00;102621.08;1954289;73;21059;-72
2022/05/05 02:00:31;;;;;;;3.25;2.02;;;;;;;11.79;100.00;102618.02;1953156;73;21038;-72
2022/05/05 02:02:59;;;;;;;3.65;2.50;;;;;;;11.81;100.00;102607.36;1952877;72;21540;-72
2022/05/05 02:05:29;;;;;;;4.33;2.30;;;;;;;11.78;100.00;102604.69;1953889;72;21139;-72
2022/05/05 02:07:57;;;;;;;3.15;2.30;;;;;;;11.71;100.00;102593.75;1954287;73;21145;-72
2022/05/05 02:10:24;;;;;;;3.72;2.30;;;;;;;11.63;100.00;102576.80;1953741;72;21018;-72
2022/05/05 02:12:53;;;;;;;5.72;2.80;;;;;;;11.69;100.00;102570.96;1950108;72;21143;-72
2022/05/05 02:15:20;;;;;;;5.58;2.67;;;;;;;11.67;100.00;102567.45;1934767;72;21065;-72
2022/05/05 02:17:48;;;;;;;4.50;3.20;;;;;;;11.65;100.00;102562.26;1955271;73;21087;-72
2022/05/05 02:20:16;;;;;;;4.90;3.33;;;;;;;11.67;100.00;102547.74;1953273;73;21577;-71
2022/05/05 02:22:44;;;;;;;3.72;2.60;;;;;;;11.77;100.00;102538.98;1953089;72;21095;-72
2022/05/05 02:25:11;;;;;;;4.42;3.30;;;;;;;11.83;100.00;102531.00;1955341;72;21049;-72
2022/05/05 02:27:49;;;;;;;4.90;2.83;;;;;;;11.81;100.00;102536.94;1955000;72;21030;-72
2022/05/05 02:30:21;;;;;;;4.78;2.62;;;;;;;11.74;100.00;102533.33;1928895;73;21080;-72
2022/05/05 02:32:49;;;;;;;3.72;2.55;;;;;;;11.73;100.00;102532.88;1966019;71;21057;-72
2022/05/05 02:35:18;;;;;;;4.87;3.37;;;;;;;11.69;100.00;102527.19;1966332;72;21096;-72
2022/05/05 02:40:32;;;;;;;5.28;3.83;;;;;;;11.85;100.00;102538.37;1976357;71;21123;-72
2022/05/05 02:43:00;;;;;;;7.78;4.35;;;;;;;11.89;100.00;102541.89;1943312;73;21062;-72
2022/05/05 02:45:28;;;;;;;7.87;5.00;;;;;;;11.99;100.00;102546.47;1966163;71;21069;-72
2022/05/05 02:47:55;;;;;;;5.70;4.05;;;;;;;11.98;100.00;102543.84;1966775;71;21635;-72
2022/05/05 02:50:23;;;;;;;8.50;4.80;;;;;;;11.96;100.00;102540.38;1967518;71;21009;-72
2022/05/05 02:52:51;;;;;;;9.28;5.33;;;;;;;11.98;100.00;102542.16;1967014;72;21553;-72
2022/05/05 02:55:18;;;;;;;7.25;4.35;;;;;;;11.92;100.00;102537.27;1966097;71;21053;-72
2022/05/05 02:57:46;;;;;;;8.00;4.65;;;;;;;11.99;100.00;102537.86;1966396;71;21080;-73
2022/05/05 03:00:14;;;;;;;6.55;4.28;;;;;;;11.98;100.00;102537.41;1967597;71;21123;-73
2022/05/05 03:02:43;;;;;;;6.42;4.25;;;;;;;12.02;100.00;102539.23;1967338;71;21455;-72
2022/05/05 03:05:13;;;;;;;6.22;4.30;;;;;;;12.02;100.00;102533.23;1966155;72;21069;-73
2022/05/05 03:07:41;;;;;;;5.45;3.98;;;;;;;12.02;100.00;102531.51;1966180;71;20997;-73
2022/05/05 03:10:11;;;;;;;5.12;3.83;;;;;;;12.19;100.00;102529.81;1945079;71;21122;-72
2022/05/05 03:12:39;;;;;;;6.17;4.28;;;;;;;12.15;100.00;102525.02;1967680;71;21038;-73
2022/05/05 03:15:07;;;;;;;6.30;4.15;;;;;;;12.17;100.00;102523.33;1946208;73;21037;-73
2022/05/05 03:17:36;;;;;;;5.75;3.80;;;;;;;12.19;100.00;102522.97;1967411;72;21730;-73
2022/05/05 03:20:04;;;;;;;6.53;3.58;;;;;;;12.23;100.00;102523.91;1965935;71;21447;-73
2022/05/05 03:22:32;;;;;;;5.97;3.08;;;;;;;12.36;100.00;102528.56;1966148;71;21673;-73
2022/05/05 03:24:59;;;;;;;4.40;3.12;;;;;;;12.46;100.00;102532.64;1967470;71;21142;-73
2022/05/05 03:27:27;;;;;;;4.00;2.83;;;;;;;12.42;100.00;102519.22;1967585;72;21014;-73
2022/05/05 03:29:54;;;;;;;4.45;3.08;;;;;;;12.50;100.00;102529.30;1966432;73;21551;-73
2022/05/05 03:32:22;;;;;;;4.10;2.92;;;;;;;12.67;100.00;102531.02;1936724;72;21155;-73
2022/05/05 03:34:49;;;;;;;3.62;2.90;;;;;;;12.76;100.00;102526.50;1937882;74;21069;-73
2022/05/05 03:37:16;;;;;;;4.83;2.95;;;;;;;12.78;100.00;102535.13;1936478;72;21133;-73
2022/05/05 03:39:44;;;;;;;4.22;2.80;;;;;;;12.90;100.00;102533.27;1940876;72;21160;-73
2022/05/05 03:42:11;;;;;;;4.78;3.15;;;;;;;12.98;100.00;102537.30;1937182;74;21025;-73
2022/05/05 03:44:39;;;;;;;3.33;2.52;;;;;;;12.96;100.00;102531.25;1938963;72;21518;-73
2022/05/05 03:47:07;;;;;;;3.05;2.30;;;;;;;12.92;100.00;102529.40;1939921;73;21030;-73
2022/05/05 03:49:34;;;;;;;4.20;3.00;;;;;;;12.93;100.00;102527.30;1938557;74;21035;-73
2022/05/05 03:52:02;;;;;;;4.33;2.87;;;;;;;12.96;100.00;102532.09;1937281;72;21120;-72
2022/05/05 03:54:29;;;;;;;3.35;2.80;;;;;;;13.18;100.00;102538.16;1938197;72;21077;-73
2022/05/05 03:56:57;;;;;;;3.98;2.95;;;;;;;13.24;100.00;102534.44;1940015;73;21041;-73
2022/05/05 03:59:24;;;;;;;3.42;2.80;;;;;;;13.25;100.00;102531.01;1928109;74;21446;-72
2022/05/05 04:01:52;;;;;;;3.67;2.90;;;;;;;13.30;100.00;102535.84;1938713;73;21572;-72
2022/05/05 04:04:19;;;;;;;4.00;2.87;;;;;;;13.16;100.00;102523.52;1939193;74;21131;-73
2022/05/05 04:06:47;;;;;;;3.70;2.85;;;;;;;13.15;100.00;102524.77;1942220;73;21097;-73
2022/05/05 04:09:15;;;;;;;3.50;2.75;;;;;;;13.27;100.00;102526.73;1937649;72;21026;-73
2022/05/05 04:11:43;;;;;;;4.10;2.92;;;;;;;13.24;100.00;102519.80;1940006;74;21094;-73
2022/05/05 04:14:10;;;;;;;4.62;3.30;;;;;;;13.22;100.00;102518.03;1922277;74;21180;-73
2022/05/05 04:16:38;;;;;;;6.10;2.58;;;;;;;13.34;100.00;102521.30;1934682;74;21218;-73
2022/05/05 04:19:06;;;;;;;4.62;3.50;;;;;;;13.35;100.00;102523.03;1937697;72;21069;-73
2022/05/05 04:21:35;;;;;;;3.42;2.77;;;;;;;13.37;100.00;102514.48;1939845;72;21038;-73
2022/05/05 04:24:02;;;;;;;6.95;3.80;;;;;;;13.28;100.00;102511.72;1939855;74;21109;-73
2022/05/05 04:26:30;;;;;;;5.03;3.77;;;;;;;13.17;100.00;102506.30;1920195;72;21030;-73
2022/05/05 04:28:58;;;;;;;4.80;2.98;;;;;;;13.32;100.00;102504.48;1937327;72;21034;-73
2022/05/05 04:31:28;;;;;;;5.87;3.55;;;;;;;13.38;100.00;102511.49;1928349;72;21139;-73
2022/05/05 04:33:56;;;;;;;5.65;3.33;;;;;;;13.30;100.00;102504.86;1959658;71;21482;-73
2022/05/05 04:36:23;;;;;;;4.92;3.30;;;;;;;13.35;100.00;102508.40;1962977;71;21514;-73
2022/05/05 04:38:51;;;;;;;3.80;2.85;;;;;;;13.41;100.00;102505.95;1960694;72;21025;-73
2022/05/05 04:41:18;;;;;;;5.67;3.87;;;;;;;13.48;100.00;102506.98;1960326;73;21038;-73
2022/05/05 04:43:45;;;;;;;6.87;3.87;;;;;;;13.50;100.00;102511.77;1959795;71;21486;-73
2022/05/05 04:46:13;;;;;;;6.20;3.70;;;;;;;13.42;100.00;102506.40;1960748;71;21093;-72
2022/05/05 04:48:41;;;;;;;4.75;3.33;;;;;;;13.41;100.00;102508.95;1961439;72;21152;-73
2022/05/05 04:51:08;;;;;;;6.75;3.67;;;;;;;13.50;100.00;102509.59;1960575;73;21033;-73
2022/05/05 04:53:36;;;;;;;9.18;3.77;;;;;;;13.47;100.00;102504.33;1959813;73;21600;-73
2022/05/05 04:56:03;;;;;;;7.55;4.03;;;;;;;13.33;100.00;102506.22;1960363;71;21060;-73
2022/05/05 04:58:34;;;;;;;9.20;5.03;;;;;;;13.39;100.00;102499.02;1961408;71;21057;-73
2022/05/05 05:01:02;;;;;;;5.37;3.70;;;;;;;13.38;100.00;102498.58;1960939;73;21010;-73
2022/05/05 05:03:35;;;;;;;9.80;4.95;;;;;;;13.44;100.00;102499.09;1959808;73;21177;-73
2022/05/05 05:06:07;;;;;;;6.97;4.45;;;;;;;13.46;100.00;102500.02;1959824;72;21576;-72
2022/05/05 05:08:35;;;;;;;7.62;4.42;;;;;;;13.51;100.00;102500.59;1961516;72;21048;-72
2022/05/05 05:11:03;;;;;;;7.70;3.98;;;;;;;13.54;100.00;102502.36;1961625;71;21070;-72
2022/05/05 05:13:31;;;;;;;8.98;4.85;;;;;;;13.50;100.00;102496.69;1952692;72;21102;-72
2022/05/05 05:15:58;;;;;;;5.97;3.98;;;;;;;13.55;100.00;102498.92;1947846;73;21159;-73
2022/05/05 05:18:25;;;;;;;5.78;4.03;;;;;;;13.62;100.00;102499.94;1956104;71;21099;-73
2022/05/05 05:20:53;;;;;;;6.22;3.87;;;;;;;13.58;100.00;102491.25;1960914;71;21134;-73
2022/05/05 05:23:21;;;;;;;7.22;4.95;;;;;;;13.60;100.00;102494.74;1932478;73;21022;-73
2022/05/05 05:25:48;;;;;;;6.15;4.33;;;;;;;13.62;100.00;102490.91;1955511;71;21073;-73
2022/05/05 05:28:16;;;;;;;6.03;4.33;;;;;;;13.50;100.00;102486.36;1958114;72;21024;-73
2022/05/05 05:30:43;;;;;;;6.37;4.35;;;;;;;13.70;100.00;102487.16;1960152;71;21092;-73
2022/05/05 05:33:10;;;;;;;8.15;4.17;;;;;;;13.71;100.00;102485.02;1956206;71;21052;-73
2022/05/05 05:35:38;;;;;;;6.47;4.60;;;;;;;13.75;100.00;102493.27;1922421;71;21172;-73
2022/05/05 05:38:06;;;;;;;6.35;4.47;;;;;;;13.69;100.00;102486.72;1962949;72;21127;-73
2022/05/05 05:40:34;;;;;;;7.05;4.30;;;;;;;13.82;100.00;102494.25;1960087;72;21009;-74
2022/05/05 05:43:01;;;;;;;9.10;4.70;;;;;;;13.80;100.00;102493.81;1958846;72;20991;-74
2022/05/05 05:45:29;;;;;;;7.37;4.33;;;;;;;13.95;100.00;102492.77;1960676;72;21131;-74
2022/05/05 05:47:56;;;;;;;7.37;4.90;;;;;;;14.01;100.00;102499.35;1957207;72;20999;-74
2022/05/05 05:50:24;;;;;;;7.33;4.42;;;;;;;13.93;100.00;102487.57;1960930;71;21458;-74
2022/05/05 05:52:51;;;;;;;8.45;4.50;;;;;;;14.02;100.00;102490.75;1924011;73;21142;-74
2022/05/05 05:55:18;;;;;;;6.53;4.12;;;;;;;14.01;100.00;102489.02;1982372;71;21080;-74
2022/05/05 05:57:46;;;;;;;7.28;5.20;;;;;;;13.98;100.00;102491.54;1955000;73;21165;-74
2022/05/05 06:00:14;;;;;;;8.63;4.92;;;;;;;14.02;100.00;102490.34;1937760;73;21139;-73
2022/05/05 06:05:27;;;;;;;7.92;4.65;;;;;;;13.92;100.00;102491.89;1941020;71;21114;-73
2022/05/05 06:08:02;;;;;;;6.85;4.70;;;;;;;13.98;100.00;102492.42;1971943;72;20985;-73
2022/05/05 06:10:31;;;;;;;8.20;4.60;;;;;;;14.05;100.00;102492.09;1894549;73;21086;-73
2022/05/05 06:12:58;;;;;;;8.15;4.85;;;;;;;14.04;100.00;102485.20;1944893;71;21109;-73
2022/05/05 06:15:26;;;;;;;6.47;4.35;;;;;;;14.06;100.00;102482.20;1951955;72;21136;-74
2022/05/05 06:17:54;;;;;;;6.90;4.53;;;;;;;13.97;100.00;102482.91;1949402;71;21532;-73
2022/05/05 06:20:21;;;;;;;6.83;4.50;;;;;;;14.04;100.00;102481.33;1959331;71;21092;-74
2022/05/05 06:22:52;;;;;;;9.70;5.12;;;;;;;14.11;100.00;102478.42;1973625;71;21117;-74
2022/05/05 06:25:21;;;;;;;8.18;4.85;;;;;;;14.04;100.00;102482.61;1973486;71;21143;-73
2022/05/05 06:27:49;;;;;;;7.75;4.75;;;;;;;14.02;100.00;102483.00;1933791;72;21102;-73
2022/05/05 06:30:16;;;;;;;7.55;4.15;;;;;;;14.09;100.00;102471.05;1973350;72;21079;-74
2022/05/05 06:32:45;;;;;;;7.53;4.72;;;;;;;14.08;100.00;102474.48;1975796;71;21037;-74
2022/05/05 06:35:13;;;;;;;7.85;4.67;;;;;;;14.08;100.00;102471.48;1943325;71;21081;-74
2022/05/05 06:37:41;;;;;;;7.85;5.05;;;;;;;14.16;100.00;102466.02;1978103;71;21120;-73
2022/05/05 06:40:09;;;;;;;7.90;4.58;;;;;;;14.23;100.00;102467.39;1942716;71;21133;-73
2022/05/05 06:42:36;;;;;;;12.13;6.12;;;;;;;14.08;100.00;102468.02;1982381;71;21115;-73
2022/05/05 06:45:05;;;;;;;7.90;5.40;;;;;;;14.10;100.00;102462.02;1973851;71;21118;-73
2022/05/05 06:47:33;;;;;;;9.98;5.53;;;;;;;14.10;100.00;102463.32;1980343;71;21169;-73
2022/05/05 06:50:01;;;;;;;8.15;5.17;;;;;;;14.07;100.00;102469.72;1980146;71;21091;-74
2022/05/05 06:52:28;;;;;;;10.23;5.58;;;;;;;14.23;100.00;102472.56;1978428;71;21107;-73
2022/05/05 06:54:55;;;;;;;6.45;4.80;;;;;;;14.41;100.00;102476.75;1976870;71;21142;-73
2022/05/05 06:57:23;;;;;;;8.40;5.67;;;;;;;14.53;100.00;102479.08;1944297;71;21131;-73
2022/05/05 06:59:51;;;;;;;8.68;4.92;;;;;;;14.57;100.00;102476.98;1973519;71;21017;-73
2022/05/05 07:02:18;;;;;;;8.10;5.17;;;;;;;14.54;100.00;102475.64;1978009;71;21478;-73
2022/05/05 07:07:31;;;;;;;6.47;4.58;;;;;;;14.62;100.00;102467.56;1979344;71;21131;-73
2022/05/05 07:12:44;;;;;;;6.25;4.87;;;;;;;14.87;100.00;102464.05;1979581;71;21111;-73
2022/05/05 07:15:12;;;;;;;9.88;4.83;;;;;;;15.00;100.00;102461.21;1978614;71;21162;-74
2022/05/05 07:17:40;;;;;;;6.40;4.58;;;;;;;15.00;100.00;102453.86;1942347;71;21165;-73
2022/05/05 07:20:08;;;;;;;7.53;4.12;;;;;;;15.04;100.00;102448.75;1976178;71;20994;-73
2022/05/05 07:22:36;;;;;;;6.85;4.28;;;;;;;15.17;100.00;102448.48;1977170;71;21127;-73
2022/05/05 07:25:04;;;;;;;6.25;4.00;;;;;;;15.31;100.00;102436.98;1977759;71;21501;-73
2022/05/05 07:27:31;;;;;;;6.10;3.67;;;;;;;15.59;100.00;102442.88;1980076;71;21095;-73
2022/05/05 07:29:59;;;;;;;6.92;3.50;;;;;;;15.60;100.00;102431.23;1980187;70;21727;-73
2022/05/05 07:32:26;;;;;;;7.50;3.40;;;;;;;15.55;100.00;102425.56;1981940;71;21068;-73
2022/05/05 07:34:54;;;;;;;7.00;3.92;;;;;;;15.56;100.00;102421.70;1960030;71;21148;-73
2022/05/05 07:37:21;;;;;;;7.72;3.83;;;;;;;15.53;100.00;102416.48;1912435;72;21037;-73
2022/05/05 07:39:48;;;;;;;6.78;3.85;;;;;;;15.87;100.00;102412.03;1958178;72;21068;-75
2022/05/05 07:42:16;;;;;;;6.45;3.58;;;;;;;15.84;100.00;102402.52;1954041;72;21021;-74
2022/05/05 07:44:43;;;;;;;4.75;2.83;;;;;;;15.80;100.00;102390.39;1955393;72;21178;-74
2022/05/05 07:47:11;;;;;;;3.42;2.67;;;;;;;16.11;100.00;102383.30;1956946;72;21157;-74
2022/05/05 07:49:38;;;;;;;4.42;3.17;;;;;;;16.22;100.00;102365.21;1956039;72;21128;-73
2022/05/05 07:52:05;;;;;;;5.55;3.47;;;;;;;16.18;100.00;102353.09;1925940;72;21014;-73
2022/05/05 07:54:38;;;;;;;5.58;3.20;;;;;;;16.04;100.00;102342.63;1956474;72;21484;-74
2022/05/05 07:57:07;;;;;;;5.87;2.70;;;;;;;16.29;100.00;102331.13;1928935;72;21224;-73
2022/05/05 07:59:34;;;;;;;5.30;2.67;;;;;;;16.56;100.00;102325.61;1954978;72;21112;-72
2022/05/05 08:02:03;;;;;;;5.28;2.98;;;;;;;16.50;100.00;102317.38;1957205;72;21566;-73
2022/05/05 08:04:31;;;;;;;6.50;3.92;;;;;;;16.42;100.00;102305.68;1953856;72;21157;-72
2022/05/05 08:06:59;;;;;;;4.70;2.85;;;;;;;16.20;100.00;102311.20;1958922;71;21565;-72
2022/05/05 08:09:26;;;;;;;4.25;2.80;;;;;;;16.27;100.00;102312.09;1954875;72;21115;-72
2022/05/05 08:11:54;;;;;;;5.30;2.77;;;;;;;16.30;100.00;102320.77;1929444;72;21007;-72
2022/05/05 08:14:22;;;;;;;3.22;2.37;;;;;;;15.85;100.00;102312.69;1957616;72;21239;-72
2022/05/05 08:16:49;;;;;;;3.87;2.87;;;;;;;15.85;100.00;102329.08;1958253;72;21108;-73
2022/05/05 08:19:17;;;;;;;3.40;2.30;;;;;;;16.05;100.00;102337.91;1955964;72;21197;-73
2022/05/05 08:21:44;;;;;;;2.55;1.85;;;;;;;16.00;100.00;102344.34;1957576;72;21519;-72
2022/05/05 08:29:42;;;;;;;1.95;1.72;;;;;;;16.06;100.00;102322.37;1956219;72;21119;-72
2022/05/05 08:32:10;;;;;;;1.62;1.45;;;;;;;16.00;100.00;102317.13;1954607;72;21554;-72
2022/05/05 08:34:37;;;;;;;2.62;1.17;;;;;;;16.17;100.00;102309.88;1964661;72;21240;-72
2022/05/05 08:37:05;;;;;;;1.82;1.27;;;;;;;16.19;100.00;102304.28;1967989;72;21101;-72
2022/05/05 08:39:32;;;;;;;2.90;1.98;;;;;;;16.07;100.00;102296.88;1939091;72;21052;-72
2022/05/05 08:42:00;;;;;;;1.92;1.17;;;;;;;16.02;100.00;102288.63;1951620;72;21532;-72
2022/05/05 08:44:27;;;;;;;2.75;1.40;;;;;;;16.66;100.00;102285.00;1951718;72;21048;-73
2022/05/05 08:46:56;;;;;;;1.42;1.10;;;;;;;16.61;100.00;102271.58;1930810;73;21006;-73
2022/05/05 08:49:24;;;;;;;3.05;1.15;;;;;;;16.73;100.00;102264.27;1951660;72;21118;-72
2022/05/05 08:51:53;;;;;;;1.15;1.05;;;;;;;16.69;100.00;102252.58;1950042;72;21138;-72
2022/05/05 08:54:25;;;;;;;2.47;1.20;;;;;;;16.88;100.00;102247.86;1933984;72;21139;-72
2022/05/05 08:56:57;;;;;;;4.00;1.00;;;;;;;17.32;100.00;102219.76;1952578;72;21013;-72
2022/05/05 08:59:24;;;;;;;3.95;1.95;;;;;;;17.32;100.00;102219.76;1951012;72;21499;-72
2022/05/05 09:01:54;;;;;;;1.32;1.10;;;;;;;17.52;100.00;102205.45;1951801;72;21518;-72
2022/05/05 09:04:21;;;;;;;2.85;1.20;;;;;;;17.71;100.00;102182.87;1940673;72;21525;-72
2022/05/05 09:06:53;;;;;;;1.85;1.20;;;;;;;17.22;100.00;102170.42;1947102;72;21013;-72
2022/05/05 09:09:30;;;;;;;2.15;1.00;;;;;;;16.89;100.00;102169.56;1941252;72;21053;-72
2022/05/05 09:12:16;;;;;;;3.98;1.25;;;;;;;17.13;100.00;102182.98;1952979;72;21104;-72
2022/05/05 09:14:50;;;;;;;2.17;1.15;;;;;;;17.03;100.00;102169.11;1925472;73;21180;-72
2022/05/05 09:17:22;;;;;;;1.45;0.90;;;;;;;16.82;100.00;102160.03;1936333;72;21130;-72
2022/05/05 09:19:52;;;;;;;1.20;1.02;;;;;;;17.11;100.00;102152.69;1897798;72;21087;-72
2022/05/05 09:22:21;;;;;;;2.00;1.02;;;;;;;17.08;100.00;102143.59;1951463;72;21153;-72
2022/05/05 09:24:51;;;;;;;1.25;0.82;;;;;;;17.58;100.00;102144.81;1951759;72;21505;-72
2022/05/05 09:27:20;;;;;;;2.12;1.10;;;;;;;17.71;100.00;102102.30;1952014;72;21025;-72
2022/05/05 09:30:02;;;;;;;1.25;1.15;;;;;;;17.43;100.00;102095.91;1947644;72;21036;-72
2022/05/05 09:32:33;;;;;;;1.40;1.30;;;;;;;17.43;100.00;102095.91;1951676;72;21560;-72
2022/05/05 09:35:03;;;;;;;1.35;0.90;;;;;;;17.77;100.00;102089.29;1957085;71;21080;-72
2022/05/05 09:37:31;;;;;;;1.72;1.60;;;;;;;17.77;100.00;102089.29;1958650;73;21035;-72
2022/05/05 09:40:03;;;;;;;1.32;1.20;;;;;;;18.49;100.00;102082.80;1962777;73;21006;-72
2022/05/05 09:42:40;;;;;;;1.10;1.00;;;;;;;19.07;100.00;102059.27;1959827;72;21083;-72
2022/05/05 09:45:16;;;;;;;2.02;1.10;;;;;;;19.19;100.00;102045.69;1959812;72;21159;-72
2022/05/05 09:47:46;;;;;;;1.30;1.20;;;;;;;18.83;100.00;102057.77;1961022;71;21123;-72
2022/05/05 09:50:14;;;;;;;1.65;1.50;;;;;;;17.74;100.00;102055.94;1919423;73;20991;-72
2022/05/05 09:58:21;;;;;;;1.35;1.25;;;;;;;17.85;100.00;102068.89;1884353;75;21169;-72
2022/05/05 10:00:58;;;;;;;4.37;1.45;;;;;;;17.22;100.00;102064.37;1883408;74;21064;-72
2022/05/05 10:06:06;;;;;;;2.27;1.30;;;;;;;17.44;100.00;102076.84;1954695;73;21156;-72
2022/05/05 10:08:43;;;;;;;1.92;1.45;;;;;;;17.76;100.00;102076.30;1961301;72;21017;-72
2022/05/05 10:11:11;;;;;;;2.50;1.50;;;;;;;17.88;100.00;102076.66;1961775;73;21065;-72
2022/05/05 10:13:39;;;;;;;6.08;1.85;;;;;;;18.14;100.00;102080.45;1941953;71;21029;-72
2022/05/05 10:16:08;;;;;;;1.20;1.05;;;;;;;18.14;100.00;102080.45;1949769;71;21525;-72
2022/05/05 10:18:39;;;;;;;2.70;1.37;;;;;;;18.50;100.00;102080.61;1952544;71;21053;-72
2022/05/05 10:21:09;;;;;;;1.52;1.35;;;;;;;18.28;100.00;102079.48;1955327;71;21034;-72
2022/05/05 10:23:51;;;;;;;1.35;1.25;;;;;;;18.71;100.00;102082.62;1947717;72;21170;-72
2022/05/05 10:26:24;;;;;;;2.02;1.40;;;;;;;18.89;100.00;102075.92;1956738;71;21078;-72
2022/05/05 10:28:52;;;;;;;5.30;1.30;;;;;;;19.02;100.00;102070.16;1948092;72;21104;-72
2022/05/05 10:31:37;;;;;;;2.15;1.25;;;;;;;18.87;100.00;102063.80;1956826;71;21850;-72
2022/05/05 10:34:09;;;;;;;2.47;1.17;;;;;;;18.69;100.00;102066.55;1966040;71;21163;-72
2022/05/05 10:36:37;;;;;;;1.57;1.30;;;;;;;18.65;100.00;102068.77;1971871;72;21111;-72
2022/05/05 10:39:19;;;;;;;2.22;1.70;;;;;;;18.99;100.00;102066.27;1968634;72;21146;-72
2022/05/05 10:41:46;;;;;;;1.50;1.40;;;;;;;18.83;100.00;102066.89;1968637;72;21109;-72
2022/05/05 10:44:26;;;;;;;1.60;1.37;;;;;;;18.52;100.00;102067.16;1965934;72;21120;-72
2022/05/05 10:47:02;;;;;;;1.57;1.40;;;;;;;18.94;100.00;102074.16;1964641;72;21103;-72
2022/05/05 10:49:39;;;;;;;2.75;1.72;;;;;;;19.00;100.00;102074.96;1967455;72;21385;-72
2022/05/05 10:52:13;;;;;;;3.35;1.32;;;;;;;19.21;100.00;102075.20;1964430;72;21062;-72
2022/05/05 10:54:48;;;;;;;1.55;1.30;;;;;;;19.06;100.00;102071.88;1968974;71;21029;-72
2022/05/05 10:57:29;;;;;;;15.35;1.60;;;;;;;19.18;100.00;102073.50;1970315;72;21087;-72
2022/05/05 11:00:08;;;;;;;4.87;1.45;;;;;;;18.81;100.00;102074.70;1968136;72;21025;-72
2022/05/05 11:02:37;;;;;;;2.30;1.40;;;;;;;18.75;100.00;102082.56;1969523;72;21537;-72
2022/05/05 11:05:24;;;;;;;1.77;1.20;;;;;;;18.83;100.00;102085.11;1950204;72;21197;-72
2022/05/05 11:07:52;;;;;;;1.62;1.22;;;;;;;18.83;100.00;102085.11;1942247;72;21044;-72
2022/05/05 11:13:40;;;;;;;2.05;1.40;;;;;;;18.62;100.00;102087.00;1962627;72;21506;-72
2022/05/05 11:22:08;;;;;;;1.25;1.15;;;;;;;19.36;100.00;102080.67;1927951;73;21056;-72
2022/05/05 11:24:35;;;;;;;2.15;1.40;;;;;;;19.58;100.00;102069.53;1952798;72;21193;-72
2022/05/05 11:27:03;;;;;;;2.08;1.45;;;;;;;19.15;100.00;102063.53;1952188;72;21477;-71
2022/05/05 11:29:31;;;;;;;1.47;1.35;;;;;;;18.75;100.00;102074.75;1951629;72;21150;-71
2022/05/05 11:32:05;;;;;;;2.25;1.30;;;;;;;19.13;100.00;102066.62;1950912;72;21505;-72
2022/05/05 11:34:34;;;;;;;1.50;1.40;;;;;;;19.23;100.00;102060.41;1946186;73;21045;-72
2022/05/05 11:37:02;;;;;;;6.03;1.98;;;;;;;19.63;100.00;102059.48;1939881;73;21070;-72
2022/05/05 11:39:31;;;;;;;1.85;1.55;;;;;;;19.28;100.00;102056.45;1945917;72;21242;-72
2022/05/05 11:42:06;;;;;;;3.02;1.25;;;;;;;19.39;100.00;102056.31;1921127;73;21093;-72
2022/05/05 11:44:41;;;;;;;4.05;1.60;;;;;;;19.32;100.00;102059.44;1912938;74;21053;-71
2022/05/05 11:47:14;;;;;;;3.37;1.42;;;;;;;19.72;100.00;102059.35;1945828;72;21095;-71
2022/05/05 11:49:51;;;;;;;2.20;1.80;;;;;;;20.16;100.00;102050.93;1932692;74;21163;-72
2022/05/05 11:52:18;;;;;;;1.30;1.17;;;;;;;20.28;100.00;102047.28;1942707;72;21190;-72
2022/05/05 11:54:50;;;;;;;2.10;1.17;;;;;;;20.67;100.00;102051.84;1936787;73;21152;-72
2022/05/05 11:57:35;;;;;;;1.60;1.22;;;;;;;20.58;100.00;102051.12;1948422;73;21154;-72
2022/05/05 12:02:49;;;;;;;4.03;1.45;;;;;;;20.46;100.00;102039.59;1906976;73;21097;-72
2022/05/05 12:05:17;;;;;;;3.90;1.55;;;;;;;20.48;100.00;102043.89;1946116;73;21214;-72
2022/05/05 12:07:46;;;;;;;1.40;1.30;;;;;;;19.91;100.00;102042.15;1947225;72;21061;-72
2022/05/05 12:10:15;;;;;;;2.25;1.30;;;;;;;19.77;100.00;102043.66;1947344;73;21085;-72